sensor_id;sensor_type;location;lat;lon;timestamp;P1;durP1;ratioP1;P2;durP2;ratioP2
22851;SDS011;11592;45.460;9.240;2024-03-07T00:01:13;19.92;;;9.27;;
22851;SDS011;11592;45.460;9.240;2024-03-07T00:03:41;12.70;;;8.25;;
22851;SDS011;11592;45.460;9.240;2024-03-07T00:06:08;21.35;;;9.98;;
22851;SDS011;11592;45.460;9.240;2024-03-07T00:08:35;19.38;;;9.50;;
22851;SDS011;11592;45.460;9.240;2024-03-07T00:11:02;13.18;;;9.50;;
22851;SDS011;11592;45.460;9.240;2024-03-07T00:13:29;16.52;;;9.77;;
22851;SDS011;11592;45.460;9.240;2024-03-07T00:15:56;18.23;;;10.02;;
22851;SDS011;11592;45.460;9.240;2024-03-07T00:18:24;16.52;;;8.88;;
22851;SDS011;11592;45.460;9.240;2024-03-07T00:20:50;16.88;;;9.88;;
22851;SDS011;11592;45.460;9.240;2024-03-07T00:23:18;17.50;;;9.90;;
22851;SDS011;11592;45.460;9.240;2024-03-07T00:25:46;19.63;;;10.27;;
22851;SDS011;11592;45.460;9.240;2024-03-07T00:28:15;16.25;;;9.73;;
22851;SDS011;11592;45.460;9.240;2024-03-07T00:30:44;17.90;;;9.23;;
22851;SDS011;11592;45.460;9.240;2024-03-07T00:33:11;16.45;;;9.55;;
22851;SDS011;11592;45.460;9.240;2024-03-07T00:35:38;16.45;;;9.82;;
22851;SDS011;11592;45.460;9.240;2024-03-07T00:38:06;19.20;;;11.07;;
22851;SDS011;11592;45.460;9.240;2024-03-07T00:40:33;17.98;;;9.25;;
22851;SDS011;11592;45.460;9.240;2024-03-07T00:43:00;17.55;;;9.88;;
22851;SDS011;11592;45.460;9.240;2024-03-07T00:45:27;22.10;;;10.23;;
22851;SDS011;11592;45.460;9.240;2024-03-07T00:47:54;21.27;;;9.68;;
22851;SDS011;11592;45.460;9.240;2024-03-07T00:50:21;17.17;;;9.70;;
22851;SDS011;11592;45.460;9.240;2024-03-07T00:52:49;20.13;;;10.93;;
22851;SDS011;11592;45.460;9.240;2024-03-07T00:55:16;19.45;;;10.23;;
22851;SDS011;11592;45.460;9.240;2024-03-07T00:57:44;19.30;;;10.30;;
22851;SDS011;11592;45.460;9.240;2024-03-07T01:00:12;18.83;;;10.40;;
22851;SDS011;11592;45.460;9.240;2024-03-07T01:02:41;18.98;;;10.82;;
22851;SDS011;11592;45.460;9.240;2024-03-07T01:05:12;22.73;;;10.65;;
22851;SDS011;11592;45.460;9.240;2024-03-07T01:07:40;19.42;;;10.65;;
22851;SDS011;11592;45.460;9.240;2024-03-07T01:10:09;18.07;;;10.53;;
22851;SDS011;11592;45.460;9.240;2024-03-07T01:12:37;18.13;;;10.85;;
22851;SDS011;11592;45.460;9.240;2024-03-07T01:15:04;16.90;;;10.48;;
22851;SDS011;11592;45.460;9.240;2024-03-07T01:17:31;17.27;;;9.93;;
22851;SDS011;11592;45.460;9.240;2024-03-07T01:19:59;16.88;;;10.20;;
22851;SDS011;11592;45.460;9.240;2024-03-07T01:22:26;17.10;;;9.73;;
22851;SDS011;11592;45.460;9.240;2024-03-07T01:24:54;15.68;;;9.93;;
22851;SDS011;11592;45.460;9.240;2024-03-07T01:27:21;16.25;;;9.98;;
22851;SDS011;11592;45.460;9.240;2024-03-07T01:29:50;18.77;;;10.18;;
22851;SDS011;11592;45.460;9.240;2024-03-07T01:32:19;16.88;;;10.05;;
22851;SDS011;11592;45.460;9.240;2024-03-07T01:34:47;21.52;;;11.20;;
22851;SDS011;11592;45.460;9.240;2024-03-07T01:37:16;20.23;;;10.50;;
22851;SDS011;11592;45.460;9.240;2024-03-07T01:39:43;18.30;;;11.95;;
22851;SDS011;11592;45.460;9.240;2024-03-07T01:42:10;17.35;;;11.10;;
22851;SDS011;11592;45.460;9.240;2024-03-07T01:44:38;18.30;;;10.20;;
22851;SDS011;11592;45.460;9.240;2024-03-07T01:47:07;21.42;;;11.70;;
22851;SDS011;11592;45.460;9.240;2024-03-07T01:49:35;18.42;;;10.25;;
22851;SDS011;11592;45.460;9.240;2024-03-07T01:52:02;20.67;;;11.40;;
22851;SDS011;11592;45.460;9.240;2024-03-07T01:54:31;18.17;;;11.38;;
22851;SDS011;11592;45.460;9.240;2024-03-07T01:56:58;19.73;;;11.50;;
22851;SDS011;11592;45.460;9.240;2024-03-07T01:59:25;23.20;;;12.43;;
22851;SDS011;11592;45.460;9.240;2024-03-07T02:01:53;19.65;;;11.85;;
22851;SDS011;11592;45.460;9.240;2024-03-07T02:04:20;17.20;;;11.00;;
22851;SDS011;11592;45.460;9.240;2024-03-07T02:06:47;21.15;;;11.80;;
22851;SDS011;11592;45.460;9.240;2024-03-07T02:09:14;21.13;;;12.00;;
22851;SDS011;11592;45.460;9.240;2024-03-07T02:11:41;26.58;;;11.68;;
22851;SDS011;11592;45.460;9.240;2024-03-07T02:14:08;17.08;;;11.20;;
22851;SDS011;11592;45.460;9.240;2024-03-07T02:16:35;24.88;;;12.05;;
22851;SDS011;11592;45.460;9.240;2024-03-07T02:19:03;18.38;;;11.60;;
22851;SDS011;11592;45.460;9.240;2024-03-07T02:21:29;21.83;;;12.45;;
22851;SDS011;11592;45.460;9.240;2024-03-07T02:23:56;21.00;;;12.00;;
22851;SDS011;11592;45.460;9.240;2024-03-07T02:26:24;16.83;;;11.18;;
22851;SDS011;11592;45.460;9.240;2024-03-07T02:28:51;18.73;;;11.02;;
22851;SDS011;11592;45.460;9.240;2024-03-07T02:31:18;16.17;;;11.82;;
22851;SDS011;11592;45.460;9.240;2024-03-07T02:33:46;23.65;;;12.50;;
22851;SDS011;11592;45.460;9.240;2024-03-07T02:36:13;22.00;;;12.82;;
22851;SDS011;11592;45.460;9.240;2024-03-07T02:38:40;19.70;;;11.40;;
22851;SDS011;11592;45.460;9.240;2024-03-07T02:41:07;16.95;;;11.60;;
22851;SDS011;11592;45.460;9.240;2024-03-07T02:43:34;21.15;;;12.43;;
22851;SDS011;11592;45.460;9.240;2024-03-07T02:46:04;20.30;;;12.35;;
22851;SDS011;11592;45.460;9.240;2024-03-07T02:48:32;22.30;;;12.75;;
22851;SDS011;11592;45.460;9.240;2024-03-07T02:51:00;18.15;;;12.65;;
22851;SDS011;11592;45.460;9.240;2024-03-07T02:53:27;18.20;;;11.85;;
22851;SDS011;11592;45.460;9.240;2024-03-07T02:55:54;22.63;;;12.38;;
22851;SDS011;11592;45.460;9.240;2024-03-07T02:58:21;16.55;;;11.38;;
22851;SDS011;11592;45.460;9.240;2024-03-07T03:00:48;19.98;;;12.00;;
22851;SDS011;11592;45.460;9.240;2024-03-07T03:03:15;20.20;;;12.32;;
22851;SDS011;11592;45.460;9.240;2024-03-07T03:05:43;19.73;;;13.02;;
22851;SDS011;11592;45.460;9.240;2024-03-07T03:08:11;22.60;;;12.75;;
22851;SDS011;11592;45.460;9.240;2024-03-07T03:10:40;22.00;;;12.88;;
22851;SDS011;11592;45.460;9.240;2024-03-07T03:13:07;21.00;;;11.75;;
22851;SDS011;11592;45.460;9.240;2024-03-07T03:15:34;20.65;;;11.68;;
22851;SDS011;11592;45.460;9.240;2024-03-07T03:18:01;20.23;;;12.48;;
22851;SDS011;11592;45.460;9.240;2024-03-07T03:20:29;23.90;;;13.32;;
22851;SDS011;11592;45.460;9.240;2024-03-07T03:23:01;21.08;;;12.70;;
22851;SDS011;11592;45.460;9.240;2024-03-07T03:25:45;18.45;;;11.77;;
22851;SDS011;11592;45.460;9.240;2024-03-07T03:28:15;20.45;;;12.10;;
22851;SDS011;11592;45.460;9.240;2024-03-07T03:30:43;23.02;;;12.55;;
22851;SDS011;11592;45.460;9.240;2024-03-07T03:33:10;22.17;;;12.75;;
22851;SDS011;11592;45.460;9.240;2024-03-07T03:35:38;18.58;;;12.10;;
22851;SDS011;11592;45.460;9.240;2024-03-07T03:38:06;19.17;;;12.40;;
22851;SDS011;11592;45.460;9.240;2024-03-07T03:40:34;18.60;;;11.32;;
22851;SDS011;11592;45.460;9.240;2024-03-07T03:43:01;20.90;;;12.70;;
22851;SDS011;11592;45.460;9.240;2024-03-07T03:45:29;22.55;;;12.70;;
22851;SDS011;11592;45.460;9.240;2024-03-07T03:47:55;20.05;;;11.98;;
22851;SDS011;11592;45.460;9.240;2024-03-07T03:50:23;20.10;;;12.05;;
22851;SDS011;11592;45.460;9.240;2024-03-07T03:52:50;19.50;;;11.85;;
22851;SDS011;11592;45.460;9.240;2024-03-07T03:55:18;22.27;;;12.30;;
22851;SDS011;11592;45.460;9.240;2024-03-07T03:57:47;22.38;;;13.13;;
22851;SDS011;11592;45.460;9.240;2024-03-07T04:00:15;21.67;;;12.13;;
22851;SDS011;11592;45.460;9.240;2024-03-07T04:02:44;20.77;;;12.55;;
22851;SDS011;11592;45.460;9.240;2024-03-07T04:05:16;21.30;;;12.95;;
22851;SDS011;11592;45.460;9.240;2024-03-07T04:07:45;18.75;;;11.73;;
22851;SDS011;11592;45.460;9.240;2024-03-07T04:10:14;20.65;;;12.50;;
22851;SDS011;11592;45.460;9.240;2024-03-07T04:12:42;22.40;;;13.30;;
22851;SDS011;11592;45.460;9.240;2024-03-07T04:15:11;19.38;;;13.18;;
22851;SDS011;11592;45.460;9.240;2024-03-07T04:17:39;20.08;;;12.43;;
22851;SDS011;11592;45.460;9.240;2024-03-07T04:20:07;21.23;;;13.48;;
22851;SDS011;11592;45.460;9.240;2024-03-07T04:22:39;21.58;;;12.85;;
22851;SDS011;11592;45.460;9.240;2024-03-07T04:25:06;19.08;;;12.55;;
22851;SDS011;11592;45.460;9.240;2024-03-07T04:27:34;19.15;;;13.27;;
22851;SDS011;11592;45.460;9.240;2024-03-07T04:30:03;19.45;;;13.38;;
22851;SDS011;11592;45.460;9.240;2024-03-07T04:32:31;22.45;;;13.55;;
22851;SDS011;11592;45.460;9.240;2024-03-07T04:34:58;22.30;;;13.40;;
22851;SDS011;11592;45.460;9.240;2024-03-07T04:37:26;22.70;;;14.20;;
22851;SDS011;11592;45.460;9.240;2024-03-07T04:39:53;18.88;;;13.05;;
22851;SDS011;11592;45.460;9.240;2024-03-07T04:42:20;22.40;;;13.80;;
22851;SDS011;11592;45.460;9.240;2024-03-07T04:44:47;20.13;;;13.60;;
22851;SDS011;11592;45.460;9.240;2024-03-07T04:47:14;20.85;;;13.40;;
22851;SDS011;11592;45.460;9.240;2024-03-07T04:49:42;20.77;;;13.60;;
22851;SDS011;11592;45.460;9.240;2024-03-07T04:52:10;24.00;;;14.10;;
22851;SDS011;11592;45.460;9.240;2024-03-07T04:54:37;22.35;;;13.75;;
22851;SDS011;11592;45.460;9.240;2024-03-07T04:57:04;20.83;;;12.88;;
22851;SDS011;11592;45.460;9.240;2024-03-07T04:59:32;22.30;;;14.00;;
22851;SDS011;11592;45.460;9.240;2024-03-07T05:01:59;20.52;;;12.82;;
22851;SDS011;11592;45.460;9.240;2024-03-07T05:04:26;20.52;;;12.85;;
22851;SDS011;11592;45.460;9.240;2024-03-07T05:06:55;20.85;;;14.57;;
22851;SDS011;11592;45.460;9.240;2024-03-07T05:09:24;24.00;;;13.77;;
22851;SDS011;11592;45.460;9.240;2024-03-07T05:11:55;22.48;;;14.18;;
22851;SDS011;11592;45.460;9.240;2024-03-07T05:14:22;23.33;;;13.73;;
22851;SDS011;11592;45.460;9.240;2024-03-07T05:16:50;22.17;;;13.65;;
22851;SDS011;11592;45.460;9.240;2024-03-07T05:19:35;23.70;;;14.38;;
22851;SDS011;11592;45.460;9.240;2024-03-07T05:22:02;20.70;;;13.02;;
22851;SDS011;11592;45.460;9.240;2024-03-07T05:24:32;23.63;;;13.98;;
22851;SDS011;11592;45.460;9.240;2024-03-07T05:27:00;23.80;;;14.00;;
22851;SDS011;11592;45.460;9.240;2024-03-07T05:29:27;22.90;;;13.98;;
22851;SDS011;11592;45.460;9.240;2024-03-07T05:31:55;25.10;;;14.15;;
22851;SDS011;11592;45.460;9.240;2024-03-07T05:34:22;21.83;;;13.32;;
22851;SDS011;11592;45.460;9.240;2024-03-07T05:36:50;22.85;;;13.38;;
22851;SDS011;11592;45.460;9.240;2024-03-07T05:39:18;24.48;;;13.98;;
22851;SDS011;11592;45.460;9.240;2024-03-07T05:41:45;20.83;;;13.50;;
22851;SDS011;11592;45.460;9.240;2024-03-07T05:44:13;24.83;;;15.18;;
22851;SDS011;11592;45.460;9.240;2024-03-07T05:46:40;26.80;;;15.55;;
22851;SDS011;11592;45.460;9.240;2024-03-07T05:49:12;22.35;;;14.38;;
22851;SDS011;11592;45.460;9.240;2024-03-07T05:51:40;24.73;;;14.40;;
22851;SDS011;11592;45.460;9.240;2024-03-07T05:54:13;22.55;;;13.45;;
22851;SDS011;11592;45.460;9.240;2024-03-07T05:56:40;26.23;;;14.68;;
22851;SDS011;11592;45.460;9.240;2024-03-07T05:59:08;26.05;;;13.77;;
22851;SDS011;11592;45.460;9.240;2024-03-07T06:01:36;29.42;;;14.95;;
22851;SDS011;11592;45.460;9.240;2024-03-07T06:04:04;23.00;;;13.73;;
22851;SDS011;11592;45.460;9.240;2024-03-07T06:06:34;21.55;;;14.05;;
22851;SDS011;11592;45.460;9.240;2024-03-07T06:09:03;25.85;;;14.43;;
22851;SDS011;11592;45.460;9.240;2024-03-07T06:11:34;24.90;;;14.95;;
22851;SDS011;11592;45.460;9.240;2024-03-07T06:14:02;24.70;;;14.52;;
22851;SDS011;11592;45.460;9.240;2024-03-07T06:16:30;21.08;;;12.90;;
22851;SDS011;11592;45.460;9.240;2024-03-07T06:18:59;22.40;;;13.38;;
22851;SDS011;11592;45.460;9.240;2024-03-07T06:21:28;23.25;;;14.10;;
22851;SDS011;11592;45.460;9.240;2024-03-07T06:23:58;24.30;;;14.32;;
22851;SDS011;11592;45.460;9.240;2024-03-07T06:26:29;30.35;;;15.88;;
22851;SDS011;11592;45.460;9.240;2024-03-07T06:29:13;31.55;;;15.20;;
22851;SDS011;11592;45.460;9.240;2024-03-07T06:31:42;35.60;;;15.73;;
22851;SDS011;11592;45.460;9.240;2024-03-07T06:34:09;27.38;;;15.13;;
22851;SDS011;11592;45.460;9.240;2024-03-07T06:36:37;27.20;;;15.07;;
22851;SDS011;11592;45.460;9.240;2024-03-07T06:39:04;29.42;;;16.20;;
22851;SDS011;11592;45.460;9.240;2024-03-07T06:41:35;25.73;;;14.43;;
22851;SDS011;11592;45.460;9.240;2024-03-07T06:46:29;28.23;;;15.63;;
22851;SDS011;11592;45.460;9.240;2024-03-07T06:48:58;34.65;;;17.35;;
22851;SDS011;11592;45.460;9.240;2024-03-07T06:51:25;29.05;;;15.45;;
22851;SDS011;11592;45.460;9.240;2024-03-07T06:53:52;30.92;;;15.68;;
22851;SDS011;11592;45.460;9.240;2024-03-07T06:56:20;26.00;;;15.30;;
22851;SDS011;11592;45.460;9.240;2024-03-07T06:58:48;32.60;;;16.92;;
22851;SDS011;11592;45.460;9.240;2024-03-07T07:01:15;29.40;;;16.77;;
22851;SDS011;11592;45.460;9.240;2024-03-07T07:03:42;31.10;;;17.58;;
22851;SDS011;11592;45.460;9.240;2024-03-07T07:06:10;27.95;;;16.08;;
22851;SDS011;11592;45.460;9.240;2024-03-07T07:08:37;30.25;;;16.38;;
22851;SDS011;11592;45.460;9.240;2024-03-07T07:11:05;23.75;;;15.60;;
22851;SDS011;11592;45.460;9.240;2024-03-07T07:13:32;30.75;;;16.45;;
22851;SDS011;11592;45.460;9.240;2024-03-07T07:15:59;24.80;;;16.23;;
22851;SDS011;11592;45.460;9.240;2024-03-07T07:18:28;25.58;;;15.25;;
22851;SDS011;11592;45.460;9.240;2024-03-07T07:20:56;26.50;;;15.75;;
22851;SDS011;11592;45.460;9.240;2024-03-07T07:23:24;27.83;;;14.73;;
22851;SDS011;11592;45.460;9.240;2024-03-07T07:25:53;25.17;;;15.63;;
22851;SDS011;11592;45.460;9.240;2024-03-07T07:28:20;28.48;;;15.18;;
22851;SDS011;11592;45.460;9.240;2024-03-07T07:30:47;22.98;;;14.60;;
22851;SDS011;11592;45.460;9.240;2024-03-07T07:33:15;21.67;;;14.45;;
22851;SDS011;11592;45.460;9.240;2024-03-07T07:35:42;25.95;;;15.15;;
22851;SDS011;11592;45.460;9.240;2024-03-07T07:38:10;27.00;;;16.13;;
22851;SDS011;11592;45.460;9.240;2024-03-07T07:40:39;28.83;;;15.18;;
22851;SDS011;11592;45.460;9.240;2024-03-07T07:43:07;26.48;;;15.68;;
22851;SDS011;11592;45.460;9.240;2024-03-07T07:45:38;29.83;;;16.95;;
22851;SDS011;11592;45.460;9.240;2024-03-07T07:48:05;30.00;;;17.58;;
22851;SDS011;11592;45.460;9.240;2024-03-07T07:50:32;31.52;;;18.25;;
22851;SDS011;11592;45.460;9.240;2024-03-07T07:53:01;34.42;;;18.35;;
22851;SDS011;11592;45.460;9.240;2024-03-07T07:55:33;32.25;;;19.13;;
22851;SDS011;11592;45.460;9.240;2024-03-07T07:58:00;32.30;;;17.70;;
22851;SDS011;11592;45.460;9.240;2024-03-07T08:00:36;30.77;;;17.38;;
22851;SDS011;11592;45.460;9.240;2024-03-07T08:03:04;28.23;;;17.25;;
22851;SDS011;11592;45.460;9.240;2024-03-07T08:05:36;30.85;;;17.00;;
22851;SDS011;11592;45.460;9.240;2024-03-07T08:08:04;30.48;;;17.38;;
22851;SDS011;11592;45.460;9.240;2024-03-07T08:10:34;34.65;;;17.77;;
22851;SDS011;11592;45.460;9.240;2024-03-07T08:13:02;29.05;;;16.80;;
22851;SDS011;11592;45.460;9.240;2024-03-07T08:15:32;29.27;;;16.65;;
22851;SDS011;11592;45.460;9.240;2024-03-07T08:17:59;29.77;;;16.58;;
22851;SDS011;11592;45.460;9.240;2024-03-07T08:20:27;25.55;;;15.75;;
22851;SDS011;11592;45.460;9.240;2024-03-07T08:22:56;27.52;;;16.55;;
22851;SDS011;11592;45.460;9.240;2024-03-07T08:25:24;25.95;;;16.92;;
22851;SDS011;11592;45.460;9.240;2024-03-07T08:27:52;31.77;;;18.75;;
22851;SDS011;11592;45.460;9.240;2024-03-07T08:30:20;26.90;;;17.08;;
22851;SDS011;11592;45.460;9.240;2024-03-07T08:32:50;29.70;;;18.40;;
22851;SDS011;11592;45.460;9.240;2024-03-07T08:35:18;22.92;;;15.88;;
22851;SDS011;11592;45.460;9.240;2024-03-07T08:37:46;28.00;;;16.55;;
22851;SDS011;11592;45.460;9.240;2024-03-07T08:40:22;30.83;;;18.38;;
22851;SDS011;11592;45.460;9.240;2024-03-07T08:42:54;25.90;;;17.23;;
22851;SDS011;11592;45.460;9.240;2024-03-07T08:45:24;29.83;;;18.60;;
22851;SDS011;11592;45.460;9.240;2024-03-07T08:47:55;32.45;;;17.45;;
22851;SDS011;11592;45.460;9.240;2024-03-07T08:52:52;26.33;;;17.05;;
22851;SDS011;11592;45.460;9.240;2024-03-07T08:55:20;27.60;;;17.13;;
22851;SDS011;11592;45.460;9.240;2024-03-07T08:57:49;25.25;;;17.27;;
22851;SDS011;11592;45.460;9.240;2024-03-07T09:00:16;24.13;;;16.60;;
22851;SDS011;11592;45.460;9.240;2024-03-07T09:05:20;27.27;;;16.13;;
22851;SDS011;11592;45.460;9.240;2024-03-07T09:07:51;21.60;;;14.20;;
22851;SDS011;11592;45.460;9.240;2024-03-07T09:10:19;26.90;;;15.30;;
22851;SDS011;11592;45.460;9.240;2024-03-07T09:12:47;19.95;;;13.73;;
22851;SDS011;11592;45.460;9.240;2024-03-07T09:15:16;23.33;;;14.80;;
22851;SDS011;11592;45.460;9.240;2024-03-07T09:17:44;24.85;;;14.52;;
22851;SDS011;11592;45.460;9.240;2024-03-07T09:20:13;31.55;;;14.00;;
22851;SDS011;11592;45.460;9.240;2024-03-07T09:22:44;23.20;;;14.02;;
22851;SDS011;11592;45.460;9.240;2024-03-07T09:25:11;22.48;;;14.55;;
22851;SDS011;11592;45.460;9.240;2024-03-07T09:27:39;22.02;;;14.00;;
22851;SDS011;11592;45.460;9.240;2024-03-07T09:30:10;22.35;;;13.48;;
22851;SDS011;11592;45.460;9.240;2024-03-07T09:32:43;26.30;;;14.13;;
22851;SDS011;11592;45.460;9.240;2024-03-07T09:35:11;20.52;;;13.55;;
22851;SDS011;11592;45.460;9.240;2024-03-07T09:37:40;25.42;;;14.00;;
22851;SDS011;11592;45.460;9.240;2024-03-07T09:40:08;21.48;;;13.23;;
22851;SDS011;11592;45.460;9.240;2024-03-07T09:42:46;21.20;;;13.57;;
22851;SDS011;11592;45.460;9.240;2024-03-07T09:45:28;20.25;;;12.90;;
22851;SDS011;11592;45.460;9.240;2024-03-07T09:47:56;18.35;;;13.02;;
22851;SDS011;11592;45.460;9.240;2024-03-07T09:50:24;19.50;;;12.88;;
22851;SDS011;11592;45.460;9.240;2024-03-07T09:52:55;21.70;;;13.07;;
22851;SDS011;11592;45.460;9.240;2024-03-07T09:55:24;20.20;;;13.03;;
22851;SDS011;11592;45.460;9.240;2024-03-07T09:57:53;21.15;;;11.48;;
22851;SDS011;11592;45.460;9.240;2024-03-07T10:00:23;19.73;;;11.77;;
22851;SDS011;11592;45.460;9.240;2024-03-07T10:02:54;19.10;;;12.90;;
22851;SDS011;11592;45.460;9.240;2024-03-07T10:05:26;19.77;;;12.48;;
22851;SDS011;11592;45.460;9.240;2024-03-07T10:07:54;17.73;;;11.27;;
22851;SDS011;11592;45.460;9.240;2024-03-07T10:10:22;19.15;;;11.00;;
22851;SDS011;11592;45.460;9.240;2024-03-07T10:12:50;16.83;;;10.68;;
22851;SDS011;11592;45.460;9.240;2024-03-07T10:15:19;18.85;;;10.30;;
22851;SDS011;11592;45.460;9.240;2024-03-07T10:17:47;17.15;;;9.80;;
22851;SDS011;11592;45.460;9.240;2024-03-07T10:20:17;16.77;;;9.70;;
22851;SDS011;11592;45.460;9.240;2024-03-07T10:22:47;16.55;;;9.05;;
22851;SDS011;11592;45.460;9.240;2024-03-07T10:25:16;18.40;;;8.98;;
22851;SDS011;11592;45.460;9.240;2024-03-07T10:27:46;16.30;;;8.88;;
22851;SDS011;11592;45.460;9.240;2024-03-07T10:30:15;14.32;;;8.23;;
22851;SDS011;11592;45.460;9.240;2024-03-07T10:32:48;13.63;;;6.97;;
22851;SDS011;11592;45.460;9.240;2024-03-07T10:35:27;11.07;;;6.28;;
22851;SDS011;11592;45.460;9.240;2024-03-07T10:37:57;12.32;;;7.28;;
22851;SDS011;11592;45.460;9.240;2024-03-07T10:40:33;14.25;;;6.68;;
22851;SDS011;11592;45.460;9.240;2024-03-07T10:43:09;13.13;;;7.30;;
22851;SDS011;11592;45.460;9.240;2024-03-07T10:45:37;12.15;;;6.82;;
22851;SDS011;11592;45.460;9.240;2024-03-07T10:48:18;9.82;;;6.10;;
22851;SDS011;11592;45.460;9.240;2024-03-07T11:01:44;9.63;;;6.00;;
22851;SDS011;11592;45.460;9.240;2024-03-07T11:04:22;13.45;;;8.10;;
22851;SDS011;11592;45.460;9.240;2024-03-07T11:06:50;13.15;;;7.45;;
22851;SDS011;11592;45.460;9.240;2024-03-07T11:09:17;11.40;;;7.75;;
22851;SDS011;11592;45.460;9.240;2024-03-07T11:11:55;12.30;;;7.47;;
22851;SDS011;11592;45.460;9.240;2024-03-07T11:14:23;18.95;;;10.93;;
22851;SDS011;11592;45.460;9.240;2024-03-07T11:16:51;20.55;;;11.40;;
22851;SDS011;11592;45.460;9.240;2024-03-07T11:19:25;16.55;;;11.20;;
22851;SDS011;11592;45.460;9.240;2024-03-07T11:21:54;15.05;;;9.80;;
22851;SDS011;11592;45.460;9.240;2024-03-07T11:24:29;18.15;;;10.75;;
22851;SDS011;11592;45.460;9.240;2024-03-07T11:27:02;18.02;;;10.48;;
22851;SDS011;11592;45.460;9.240;2024-03-07T11:32:14;16.15;;;9.88;;
22851;SDS011;11592;45.460;9.240;2024-03-07T11:34:42;14.48;;;10.32;;
22851;SDS011;11592;45.460;9.240;2024-03-07T11:37:17;17.52;;;9.32;;
22851;SDS011;11592;45.460;9.240;2024-03-07T11:39:49;21.27;;;10.10;;
22851;SDS011;11592;45.460;9.240;2024-03-07T11:42:31;14.75;;;9.27;;
22851;SDS011;11592;45.460;9.240;2024-03-07T11:44:59;14.07;;;9.43;;
22851;SDS011;11592;45.460;9.240;2024-03-07T11:47:37;12.93;;;8.98;;
22851;SDS011;11592;45.460;9.240;2024-03-07T11:50:05;14.57;;;9.63;;
22851;SDS011;11592;45.460;9.240;2024-03-07T11:52:38;12.88;;;9.25;;
22851;SDS011;11592;45.460;9.240;2024-03-07T11:55:08;10.73;;;8.07;;
22851;SDS011;11592;45.460;9.240;2024-03-07T11:57:35;11.82;;;8.27;;
22851;SDS011;11592;45.460;9.240;2024-03-07T12:00:04;16.45;;;8.75;;
22851;SDS011;11592;45.460;9.240;2024-03-07T12:02:38;12.63;;;8.77;;
22851;SDS011;11592;45.460;9.240;2024-03-07T12:05:06;10.52;;;8.05;;
22851;SDS011;11592;45.460;9.240;2024-03-07T12:07:34;15.77;;;8.65;;
22851;SDS011;11592;45.460;9.240;2024-03-07T12:10:01;12.05;;;7.57;;
22851;SDS011;11592;45.460;9.240;2024-03-07T12:12:33;13.35;;;7.85;;
22851;SDS011;11592;45.460;9.240;2024-03-07T12:15:00;10.57;;;7.60;;
22851;SDS011;11592;45.460;9.240;2024-03-07T12:17:32;10.93;;;7.60;;
22851;SDS011;11592;45.460;9.240;2024-03-07T12:20:00;10.88;;;6.70;;
22851;SDS011;11592;45.460;9.240;2024-03-07T12:22:46;12.80;;;7.10;;
22851;SDS011;11592;45.460;9.240;2024-03-07T12:25:17;10.82;;;7.10;;
22851;SDS011;11592;45.460;9.240;2024-03-07T12:27:58;10.07;;;7.18;;
22851;SDS011;11592;45.460;9.240;2024-03-07T12:30:29;11.13;;;7.07;;
22851;SDS011;11592;45.460;9.240;2024-03-07T12:33:00;9.60;;;6.88;;
22851;SDS011;11592;45.460;9.240;2024-03-07T12:35:30;10.52;;;7.13;;
22851;SDS011;11592;45.460;9.240;2024-03-07T12:37:58;8.82;;;7.32;;
22851;SDS011;11592;45.460;9.240;2024-03-07T12:40:26;10.80;;;8.25;;
22851;SDS011;11592;45.460;9.240;2024-03-07T12:42:55;12.05;;;8.50;;
22851;SDS011;11592;45.460;9.240;2024-03-07T12:45:23;13.93;;;8.50;;
22851;SDS011;11592;45.460;9.240;2024-03-07T12:47:53;11.65;;;8.10;;
22851;SDS011;11592;45.460;9.240;2024-03-07T12:50:21;11.98;;;7.45;;
22851;SDS011;11592;45.460;9.240;2024-03-07T12:52:48;13.82;;;7.50;;
22851;SDS011;11592;45.460;9.240;2024-03-07T12:55:18;11.52;;;7.78;;
22851;SDS011;11592;45.460;9.240;2024-03-07T12:57:47;13.33;;;7.30;;
22851;SDS011;11592;45.460;9.240;2024-03-07T13:00:16;13.52;;;8.23;;
22851;SDS011;11592;45.460;9.240;2024-03-07T13:02:47;11.07;;;7.60;;
22851;SDS011;11592;45.460;9.240;2024-03-07T13:05:15;11.60;;;6.70;;
22851;SDS011;11592;45.460;9.240;2024-03-07T13:07:48;9.20;;;5.88;;
22851;SDS011;11592;45.460;9.240;2024-03-07T13:10:15;11.35;;;6.18;;
22851;SDS011;11592;45.460;9.240;2024-03-07T13:12:44;9.32;;;6.28;;
22851;SDS011;11592;45.460;9.240;2024-03-07T13:15:12;11.45;;;6.60;;
22851;SDS011;11592;45.460;9.240;2024-03-07T13:17:39;9.73;;;6.05;;
22851;SDS011;11592;45.460;9.240;2024-03-07T13:20:08;8.35;;;5.90;;
22851;SDS011;11592;45.460;9.240;2024-03-07T13:25:17;12.38;;;5.97;;
22851;SDS011;11592;45.460;9.240;2024-03-07T13:27:54;12.50;;;7.70;;
22851;SDS011;11592;45.460;9.240;2024-03-07T13:30:40;12.93;;;7.80;;
22851;SDS011;11592;45.460;9.240;2024-03-07T13:33:10;13.70;;;7.30;;
22851;SDS011;11592;45.460;9.240;2024-03-07T13:35:40;10.43;;;7.70;;
22851;SDS011;11592;45.460;9.240;2024-03-07T13:38:08;10.70;;;6.63;;
22851;SDS011;11592;45.460;9.240;2024-03-07T13:40:35;12.73;;;7.13;;
22851;SDS011;11592;45.460;9.240;2024-03-07T13:43:06;11.38;;;7.55;;
22851;SDS011;11592;45.460;9.240;2024-03-07T13:45:33;12.25;;;7.55;;
22851;SDS011;11592;45.460;9.240;2024-03-07T13:48:10;11.85;;;8.60;;
22851;SDS011;11592;45.460;9.240;2024-03-07T13:50:40;11.57;;;8.20;;
22851;SDS011;11592;45.460;9.240;2024-03-07T13:53:10;13.52;;;8.70;;
22851;SDS011;11592;45.460;9.240;2024-03-07T13:58:26;14.60;;;9.23;;
22851;SDS011;11592;45.460;9.240;2024-03-07T14:01:21;12.83;;;9.23;;
22851;SDS011;11592;45.460;9.240;2024-03-07T14:06:38;13.73;;;7.95;;
22851;SDS011;11592;45.460;9.240;2024-03-07T14:21:07;16.75;;;8.43;;
22851;SDS011;11592;45.460;9.240;2024-03-07T14:32:14;12.30;;;7.53;;
22851;SDS011;11592;45.460;9.240;2024-03-07T14:34:54;11.55;;;6.85;;
22851;SDS011;11592;45.460;9.240;2024-03-07T14:37:40;15.00;;;7.38;;
22851;SDS011;11592;45.460;9.240;2024-03-07T14:40:12;12.63;;;6.68;;
22851;SDS011;11592;45.460;9.240;2024-03-07T14:42:44;11.70;;;6.07;;
22851;SDS011;11592;45.460;9.240;2024-03-07T14:45:18;12.07;;;5.88;;
22851;SDS011;11592;45.460;9.240;2024-03-07T14:47:48;10.35;;;4.90;;
22851;SDS011;11592;45.460;9.240;2024-03-07T14:50:19;10.63;;;5.00;;
22851;SDS011;11592;45.460;9.240;2024-03-07T14:52:47;10.10;;;5.68;;
22851;SDS011;11592;45.460;9.240;2024-03-07T14:55:15;13.82;;;6.32;;
22851;SDS011;11592;45.460;9.240;2024-03-07T15:00:12;12.90;;;6.13;;
22851;SDS011;11592;45.460;9.240;2024-03-07T15:02:59;9.65;;;5.70;;
22851;SDS011;11592;45.460;9.240;2024-03-07T15:05:27;9.93;;;5.45;;
22851;SDS011;11592;45.460;9.240;2024-03-07T15:07:55;11.60;;;5.13;;
22851;SDS011;11592;45.460;9.240;2024-03-07T15:10:23;9.93;;;5.13;;
22851;SDS011;11592;45.460;9.240;2024-03-07T15:12:53;8.73;;;4.30;;
22851;SDS011;11592;45.460;9.240;2024-03-07T15:15:20;10.18;;;5.13;;
22851;SDS011;11592;45.460;9.240;2024-03-07T15:20:17;8.88;;;4.63;;
22851;SDS011;11592;45.460;9.240;2024-03-07T15:22:57;11.05;;;4.72;;
22851;SDS011;11592;45.460;9.240;2024-03-07T15:25:27;11.98;;;5.25;;
22851;SDS011;11592;45.460;9.240;2024-03-07T15:27:56;8.70;;;4.68;;
22851;SDS011;11592;45.460;9.240;2024-03-07T15:30:24;9.98;;;5.47;;
22851;SDS011;11592;45.460;9.240;2024-03-07T15:33:11;11.13;;;5.28;;